Time;durP1;ratioP1;P1;durP2;ratioP2;P2;SDS_P1;SDS_P2;PMS_P1;PMS_P2;Temp;Humidity;BMP_temperature;BMP_pressure;BME280_temperature;BME280_humidity;BME280_pressure;Samples;Min_cycle;Max_cycle;Signal;HPM_P1;HPM_P2
2023/06/08 00:02:47;;;;;;;13.50;10.50;;;;;;;16.55;66.72;100305.61;130048;1260;114847;-64
2023/06/08 00:05:50;;;;;;;15.50;13.00;;;;;;;16.47;66.93;100309.44;130255;1275;128868;-66
2023/06/08 00:08:52;;;;;;;14.00;11.00;;;;;;;16.41;67.24;100306.66;130340;1254;114785;-65
2023/06/08 00:11:55;;;;;;;12.80;10.80;;;;;;;16.36;67.59;100309.71;130188;1257;114775;-66
2023/06/08 00:14:57;;;;;;;16.20;11.10;;;;;;;16.30;67.49;100309.23;130028;1259;114823;-64
2023/06/08 00:18:00;;;;;;;13.60;11.60;;;;;;;16.23;67.58;100308.62;130008;1258;114770;-64
2023/06/08 00:21:03;;;;;;;15.80;11.40;;;;;;;16.17;67.76;100311.44;130067;1264;114712;-64
2023/06/08 00:24:05;;;;;;;13.90;10.70;;;;;;;16.10;67.98;100311.39;130052;1260;114891;-65
2023/06/08 00:27:08;;;;;;;16.10;11.80;;;;;;;16.04;68.08;100308.58;130134;1255;114804;-65
2023/06/08 00:30:13;;;;;;;14.60;11.90;;;;;;;15.98;68.36;100313.39;129967;1256;114706;-64
2023/06/08 00:33:15;;;;;;;14.90;12.30;;;;;;;15.90;68.78;100310.14;130062;1253;114807;-64
2023/06/08 00:36:18;;;;;;;14.40;11.30;;;;;;;15.85;68.85;100307.45;129953;1258;114813;-65
2023/06/08 00:39:20;;;;;;;15.30;10.50;;;;;;;15.78;69.02;100306.80;130173;1267;114715;-64
2023/06/08 00:42:22;;;;;;;14.20;12.60;;;;;;;15.71;68.74;100302.85;130038;1260;127847;-64
2023/06/08 00:45:25;;;;;;;14.80;12.00;;;;;;;15.64;68.85;100305.98;130431;1256;114757;-65
2023/06/08 00:48:29;;;;;;;15.00;12.00;;;;;;;15.56;68.83;100310.49;130105;1256;115345;-65
2023/06/08 00:51:34;;;;;;;12.50;11.10;;;;;;;15.48;68.90;100309.42;130492;1257;114814;-65
2023/06/08 00:54:39;;;;;;;;;;;;;;;15.41;69.06;100311.54;130803;1256;115039;-64
2023/06/08 00:57:47;;;;;;;18.80;12.90;;;;;;;15.33;69.47;100311.20;130543;1256;129155;-65
2023/06/08 01:00:50;;;;;;;13.70;11.60;;;;;;;15.26;69.59;100312.25;130023;1260;115236;-66
2023/06/08 01:04:05;;;;;;;14.30;10.80;;;;;;;15.19;69.43;100312.52;130550;1256;114729;-65
2023/06/08 01:07:30;;;;;;;14.90;12.10;;;;;;;15.12;69.66;100313.92;129830;1264;114827;-66
2023/06/08 01:10:48;;;;;;;12.60;11.30;;;;;;;15.04;69.88;100309.23;130025;1254;116366;-65
2023/06/08 01:14:13;;;;;;;15.10;13.00;;;;;;;14.97;70.05;100300.55;129999;1257;129182;-65
2023/06/08 01:17:18;;;;;;;15.10;13.50;;;;;;;14.92;70.70;100304.49;130258;1254;114801;-64
2023/06/08 01:20:29;;;;;;;14.10;12.60;;;;;;;14.88;71.04;100305.85;130099;1259;114715;-64
2023/06/08 01:24:11;;;;;;;13.90;12.40;;;;;;;14.84;70.94;100306.63;130149;1256;114779;-64
2023/06/08 01:27:14;;;;;;;14.50;12.70;;;;;;;14.79;71.26;100309.47;129733;1261;114844;-65
2023/06/08 01:30:19;;;;;;;15.70;13.00;;;;;;;14.73;71.39;100309.13;130271;1267;129877;-63
2023/06/08 01:33:23;;;;;;;16.90;13.80;;;;;;;14.69;71.28;100305.64;130210;1257;115317;-64
2023/06/08 01:36:51;;;;;;;17.70;13.00;;;;;;;14.64;71.21;100306.27;130119;1275;114823;-64
2023/06/08 01:39:59;;;;;;;17.50;12.50;;;;;;;14.58;71.38;100304.02;130097;1275;114699;-63
2023/06/08 01:43:03;;;;;;;14.40;12.80;;;;;;;14.52;71.58;100307.23;129965;1270;114900;-63
2023/06/08 01:46:08;;;;;;;19.20;14.50;;;;;;;14.47;71.59;100309.94;129852;1271;127921;-63
2023/06/08 01:49:11;;;;;;;19.20;16.60;;;;;;;14.43;71.77;100310.90;130047;1256;115189;-63
2023/06/08 01:52:13;;;;;;;16.80;13.80;;;;;;;14.40;72.07;100307.53;130162;1256;114748;-63
2023/06/08 01:55:19;;;;;;;16.70;14.00;;;;;;;14.35;71.63;100303.55;130172;1254;115206;-63
2023/06/08 01:58:22;;;;;;;18.80;15.50;;;;;;;14.29;72.11;100304.09;130098;1256;114672;-63
2023/06/08 02:01:24;;;;;;;23.80;16.30;;;;;;;14.24;72.08;100306.02;130064;1275;114772;-63
2023/06/08 02:04:27;;;;;;;18.10;15.50;;;;;;;14.19;72.13;100309.25;130272;1275;114772;-63
2023/06/08 02:07:29;;;;;;;20.10;15.10;;;;;;;14.14;72.02;100311.15;130239;1257;114737;-63
2023/06/08 02:10:32;;;;;;;17.20;14.90;;;;;;;14.10;72.31;100315.52;130210;1256;114854;-63
2023/06/08 02:13:34;;;;;;;17.40;14.40;;;;;;;14.06;72.20;100312.42;130349;1254;114815;-64
2023/06/08 02:16:38;;;;;;;24.00;16.40;;;;;;;14.00;72.67;100312.21;130227;1256;114785;-64
2023/06/08 02:19:40;;;;;;;17.70;15.40;;;;;;;13.95;72.73;100313.23;129941;1275;114809;-64
2023/06/08 02:22:42;;;;;;;18.60;16.70;;;;;;;13.92;72.91;100316.34;129772;1253;802663;-63
2023/06/08 02:25:47;;;;;;;17.50;15.70;;;;;;;13.89;72.93;100313.65;130221;1264;115262;-64
2023/06/08 02:28:50;;;;;;;19.70;16.20;;;;;;;13.85;72.99;100316.40;129867;1260;114814;-65
2023/06/08 02:31:53;;;;;;;18.80;15.60;;;;;;;13.81;73.00;100318.94;130130;1255;114721;-66
2023/06/08 02:34:56;;;;;;;20.80;16.10;;;;;;;13.78;73.08;100319.34;130143;1271;116434;-65
2023/06/08 02:37:58;;;;;;;19.40;17.30;;;;;;;13.75;73.15;100318.80;130228;1276;114862;-63
2023/06/08 02:41:00;;;;;;;21.00;17.00;;;;;;;13.72;73.32;100319.36;130110;1260;114702;-64
2023/06/08 02:44:02;;;;;;;23.50;18.40;;;;;;;13.70;73.48;100321.27;129787;1262;115151;-64
2023/06/08 02:47:05;;;;;;;23.50;17.90;;;;;;;13.69;73.68;100319.19;130030;1256;114769;-64
2023/06/08 02:50:07;;;;;;;23.40;18.30;;;;;;;13.68;73.66;100316.88;130011;1270;116318;-63
2023/06/08 02:53:11;;;;;;;21.50;17.20;;;;;;;13.69;73.71;100316.84;130053;1272;114795;-63
2023/06/08 02:56:13;;;;;;;22.60;17.10;;;;;;;13.69;73.82;100321.69;129662;1263;114828;-65
2023/06/08 02:59:16;;;;;;;20.50;17.70;;;;;;;13.70;73.96;100319.86;130039;1256;114759;-64
2023/06/08 03:02:18;;;;;;;20.70;16.40;;;;;;;13.71;73.86;100322.84;130192;1256;114763;-64
2023/06/08 03:05:21;;;;;;;18.40;16.20;;;;;;;13.72;73.84;100325.47;130152;1256;114877;-64
2023/06/08 03:08:23;;;;;;;21.00;16.30;;;;;;;13.74;73.87;100326.39;130059;1254;114756;-64
2023/06/08 03:11:25;;;;;;;17.90;16.00;;;;;;;13.77;73.95;100326.06;130120;1256;114731;-64
2023/06/08 03:14:29;;;;;;;22.00;17.20;;;;;;;13.80;73.98;100326.91;130070;1270;114870;-63
2023/06/08 03:17:33;;;;;;;19.10;17.00;;;;;;;13.84;74.01;100332.06;130103;1270;114856;-64
2023/06/08 03:20:35;;;;;;;18.60;16.10;;;;;;;13.89;74.21;100328.75;130192;1254;114763;-64
2023/06/08 03:23:38;;;;;;;19.70;16.00;;;;;;;13.94;74.02;100332.73;130191;1268;114711;-64
2023/06/08 03:26:41;;;;;;;18.20;15.70;;;;;;;13.99;74.13;100328.63;130322;1256;114754;-64
2023/06/08 03:29:43;;;;;;;17.40;15.20;;;;;;;14.05;74.15;100322.85;130181;1256;114770;-63
2023/06/08 03:32:48;;;;;;;19.70;17.50;;;;;;;14.11;74.37;100328.94;130179;1256;115314;-64
2023/06/08 03:35:51;;;;;;;22.50;17.70;;;;;;;14.18;74.46;100328.50;130028;1254;128813;-64
2023/06/08 03:38:53;;;;;;;22.60;19.10;;;;;;;14.23;74.63;100333.02;130220;1257;114794;-65
2023/06/08 03:41:55;;;;;;;23.50;19.30;;;;;;;14.28;74.73;100337.92;130247;1276;114757;-64
2023/06/08 03:44:58;;;;;;;20.50;18.30;;;;;;;14.34;74.79;100332.17;130035;1269;114801;-64
2023/06/08 03:48:00;;;;;;;22.20;18.90;;;;;;;14.40;74.68;100329.61;130013;1257;114776;-64
2023/06/08 03:51:03;;;;;;;21.80;19.00;;;;;;;14.48;74.99;100325.69;130015;1276;115426;-64
2023/06/08 03:54:05;;;;;;;22.60;18.90;;;;;;;14.56;75.01;100328.05;129948;1254;114827;-64
2023/06/08 03:57:08;;;;;;;26.10;19.90;;;;;;;14.61;75.01;100336.16;130169;1254;114757;-64
2023/06/08 04:00:11;;;;;;;22.10;19.30;;;;;;;14.68;74.95;100336.23;129997;1259;115227;-64
2023/06/08 04:03:13;;;;;;;25.70;20.30;;;;;;;14.77;75.23;100332.98;129819;1259;114824;-63
2023/06/08 04:06:16;;;;;;;22.30;19.90;;;;;;;14.84;75.00;100333.92;130006;1252;115282;-64
2023/06/08 04:09:18;;;;;;;22.20;19.70;;;;;;;14.94;75.26;100334.75;130066;1256;115156;-63
2023/06/08 04:12:20;;;;;;;23.80;21.00;;;;;;;15.02;74.82;100339.74;130130;1257;114887;-64
2023/06/08 04:15:23;;;;;;;24.50;21.80;;;;;;;15.13;74.98;100341.57;129952;1254;128754;-64
2023/06/08 04:18:25;;;;;;;26.20;22.40;;;;;;;15.22;75.12;100341.68;130088;1256;114763;-64
2023/06/08 04:21:28;;;;;;;28.60;22.50;;;;;;;15.33;75.10;100342.86;130134;1252;114711;-63
2023/06/08 04:24:32;;;;;;;29.10;22.00;;;;;;;15.44;74.97;100340.48;130065;1252;114805;-64
2023/06/08 04:27:34;;;;;;;24.80;21.20;;;;;;;15.57;74.94;100340.16;129761;1256;114847;-64
2023/06/08 04:30:36;;;;;;;26.00;22.20;;;;;;;15.69;74.86;100342.22;129881;1277;114734;-64
2023/06/08 04:33:39;;;;;;;24.70;21.50;;;;;;;15.81;74.67;100342.96;129872;1254;115411;-64
2023/06/08 04:36:44;;;;;;;24.40;21.70;;;;;;;15.95;74.59;100337.36;129904;1259;114869;-64
2023/06/08 04:39:48;;;;;;;27.20;21.70;;;;;;;16.12;74.60;100343.52;129953;1266;115695;-63
2023/06/08 04:42:51;;;;;;;26.00;21.90;;;;;;;16.49;75.29;100351.69;129919;1277;116389;-64
2023/06/08 04:45:59;;;;;;;22.40;18.50;;;;;;;17.44;75.72;100346.71;129880;1253;114735;-64
2023/06/08 04:49:01;;;;;;;20.90;17.50;;;;;;;18.74;75.19;100344.83;129913;1257;114752;-64
2023/06/08 04:52:08;;;;;;;26.20;18.50;;;;;;;20.12;74.10;100348.50;129831;1257;114773;-63
2023/06/08 04:55:13;;;;;;;22.00;18.60;;;;;;;21.47;72.23;100346.96;129861;1258;115686;-64
2023/06/08 04:58:16;;;;;;;19.80;16.70;;;;;;;22.65;70.53;100342.79;129836;1256;114757;-63
2023/06/08 05:01:18;;;;;;;20.20;16.70;;;;;;;23.83;68.71;100342.48;129794;1256;114839;-64
2023/06/08 05:04:21;;;;;;;19.10;15.40;;;;;;;24.82;66.88;100343.20;129844;1278;114713;-64
2023/06/08 05:07:23;;;;;;;17.00;15.10;;;;;;;25.74;65.38;100340.00;129892;1258;114808;-64
2023/06/08 05:10:25;;;;;;;17.20;14.60;;;;;;;26.78;63.47;100340.55;129938;1257;114775;-64
2023/06/08 05:13:28;;;;;;;15.70;14.10;;;;;;;27.67;61.50;100340.86;129863;1278;115213;-65
2023/06/08 05:16:30;;;;;;;16.10;13.80;;;;;;;28.48;59.80;100342.27;129885;1258;115282;-65
2023/06/08 05:19:32;;;;;;;13.90;12.50;;;;;;;29.19;57.96;100340.82;129937;1259;114774;-65
2023/06/08 05:22:35;;;;;;;14.40;12.80;;;;;;;29.74;56.29;100339.28;129790;1278;114878;-65
2023/06/08 05:25:37;;;;;;;14.90;11.90;;;;;;;30.29;55.02;100341.91;129823;1259;115089;-66
2023/06/08 05:28:39;;;;;;;14.40;12.40;;;;;;;30.89;53.43;100336.30;130090;1254;114673;-64
2023/06/08 05:31:42;;;;;;;13.10;11.50;;;;;;;31.43;51.86;100334.55;130094;1275;119167;-66
2023/06/08 05:34:44;;;;;;;14.20;11.10;;;;;;;31.91;50.18;100338.40;130057;1275;115122;-66
2023/06/08 05:37:47;;;;;;;12.90;11.60;;;;;;;32.16;48.91;100340.21;130487;1256;114712;-65
2023/06/08 05:40:49;;;;;;;13.30;10.80;;;;;;;32.51;48.18;100338.74;130630;1256;114727;-65
2023/06/08 05:43:51;;;;;;;12.20;11.00;;;;;;;32.83;46.88;100339.09;130075;1260;114808;-65
2023/06/08 05:46:53;;;;;;;12.80;11.00;;;;;;;33.17;46.09;100339.93;130370;1256;114711;-65
2023/06/08 05:49:55;;;;;;;12.20;11.10;;;;;;;33.43;44.87;100333.55;130352;1275;114718;-65
2023/06/08 05:52:58;;;;;;;11.90;9.90;;;;;;;33.65;43.55;100331.44;130026;1263;118954;-66
2023/06/08 05:56:00;;;;;;;15.20;11.10;;;;;;;33.89;43.18;100327.20;130260;1275;114798;-67
2023/06/08 05:59:02;;;;;;;11.60;9.70;;;;;;;34.20;42.32;100323.85;130381;1254;114751;-64
2023/06/08 06:02:05;;;;;;;13.70;9.60;;;;;;;34.58;41.54;100323.00;130022;1263;114700;-64
2023/06/08 06:05:08;;;;;;;11.30;9.00;;;;;;;34.89;40.72;100323.21;129982;1276;114693;-64
2023/06/08 06:08:10;;;;;;;10.30;8.00;;;;;;;35.21;39.52;100320.06;129935;1275;116697;-64
2023/06/08 06:11:12;;;;;;;9.40;8.40;;;;;;;35.48;38.78;100320.44;130014;1276;114711;-65
2023/06/08 06:14:15;;;;;;;9.60;8.70;;;;;;;35.75;38.32;100323.85;129975;1276;114719;-64
2023/06/08 06:17:17;;;;;;;10.40;8.80;;;;;;;35.94;37.54;100327.41;129778;1260;114715;-64
2023/06/08 06:20:20;;;;;;;11.10;8.80;;;;;;;36.12;36.93;100329.05;129882;1254;115296;-64
2023/06/08 06:23:22;;;;;;;10.40;8.40;;;;;;;36.33;36.37;100330.20;129976;1256;115148;-63
2023/06/08 06:26:25;;;;;;;10.00;8.30;;;;;;;36.33;35.42;100329.14;129830;1275;114940;-64
2023/06/08 06:29:27;;;;;;;9.30;8.00;;;;;;;36.28;34.88;100333.13;130222;1275;114722;-65
2023/06/08 06:32:29;;;;;;;10.70;9.70;;;;;;;36.35;34.37;100337.63;129909;1269;114800;-64
2023/06/08 06:35:32;;;;;;;12.70;8.90;;;;;;;36.30;34.21;100339.57;130206;1256;114715;-64
2023/06/08 06:38:34;;;;;;;8.60;7.80;;;;;;;36.31;34.21;100335.52;130187;1257;114747;-64
2023/06/08 06:41:36;;;;;;;12.20;8.40;;;;;;;36.30;33.84;100338.34;129834;1255;114809;-64
2023/06/08 06:44:42;;;;;;;10.20;8.20;;;;;;;36.22;33.42;100335.45;130114;1256;114729;-63
2023/06/08 06:47:44;;;;;;;10.90;8.60;;;;;;;36.18;33.38;100334.59;129987;1256;114886;-64
2023/06/08 06:50:47;;;;;;;11.60;7.80;;;;;;;36.31;33.19;100334.97;130271;1275;115770;-64
2023/06/08 06:53:49;;;;;;;9.20;8.20;;;;;;;36.41;32.64;100338.17;130233;1272;114814;-64
2023/06/08 06:56:51;;;;;;;8.70;7.10;;;;;;;36.34;32.46;100333.92;130334;1256;114623;-64
2023/06/08 06:59:55;;;;;;;8.70;7.80;;;;;;;36.38;32.57;100332.05;129948;1260;114821;-67
2023/06/08 07:02:57;;;;;;;9.10;7.50;;;;;;;36.47;32.08;100332.70;130377;1260;114811;-66
2023/06/08 07:05:59;;;;;;;8.30;7.50;;;;;;;36.54;31.71;100337.09;130917;1275;114784;-65
2023/06/08 07:09:04;;;;;;;9.60;8.50;;;;;;;36.50;31.47;100339.67;131528;1256;114717;-65
2023/06/08 07:12:06;;;;;;;8.70;7.60;;;;;;;36.42;31.18;100340.63;130543;1258;120216;-65
2023/06/08 07:15:10;;;;;;;8.90;7.40;;;;;;;36.32;30.71;100344.09;130668;1256;114709;-65
2023/06/08 07:18:13;;;;;;;8.00;6.90;;;;;;;36.40;31.04;100341.86;130299;1259;114715;-66
2023/06/08 07:21:19;;;;;;;8.20;7.40;;;;;;;36.54;30.86;100340.27;130406;1256;115391;-67
2023/06/08 07:24:21;;;;;;;10.80;7.70;;;;;;;36.61;30.73;100341.96;130346;1257;114705;-64
2023/06/08 07:27:23;;;;;;;8.80;6.80;;;;;;;36.69;30.49;100345.95;130179;1275;114910;-65
2023/06/08 07:30:26;;;;;;;6.80;6.10;;;;;;;36.70;30.27;100345.31;130216;1253;115093;-65
2023/06/08 07:33:28;;;;;;;6.70;6.10;;;;;;;36.75;30.36;100342.45;130265;1269;115213;-66
2023/06/08 07:36:31;;;;;;;8.20;6.60;;;;;;;36.90;30.41;100337.70;130855;1256;114776;-65
2023/06/08 07:39:34;;;;;;;8.50;6.20;;;;;;;37.13;29.82;100337.25;130570;1254;114734;-67
2023/06/08 07:42:36;;;;;;;7.90;6.00;;;;;;;37.26;29.41;100334.66;130615;1257;114696;-68
2023/06/08 07:45:38;;;;;;;6.50;5.80;;;;;;;37.54;29.32;100331.45;130439;1272;115243;-65
2023/06/08 07:48:40;;;;;;;7.40;5.80;;;;;;;37.78;28.98;100327.22;130179;1275;114701;-66
2023/06/08 07:51:43;;;;;;;7.80;6.40;;;;;;;37.89;28.70;100325.10;130358;1275;114755;-67
2023/06/08 07:54:45;;;;;;;6.80;6.20;;;;;;;37.65;28.48;100327.82;130469;1275;114824;-64
2023/06/08 07:57:48;;;;;;;10.30;6.60;;;;;;;37.55;28.03;100324.98;130486;1256;114710;-65
2023/06/08 08:00:50;;;;;;;7.80;5.90;;;;;;;37.49;28.03;100321.37;130515;1275;114683;-65
2023/06/08 08:03:52;;;;;;;7.70;5.70;;;;;;;37.52;28.07;100321.55;130180;1256;114884;-64
2023/06/08 08:06:54;;;;;;;6.50;5.90;;;;;;;37.47;27.76;100323.80;131024;1256;115071;-65
2023/06/08 08:09:56;;;;;;;6.50;5.80;;;;;;;37.42;27.61;100322.13;131302;1256;115345;-65
2023/06/08 08:12:59;;;;;;;8.90;6.00;;;;;;;37.37;27.20;100322.02;129897;1276;118009;-66
2023/06/08 08:16:01;;;;;;;7.40;6.00;;;;;;;37.14;27.07;100320.84;130448;1276;114965;-65
2023/06/08 08:19:04;;;;;;;6.10;5.60;;;;;;;36.83;27.02;100320.33;131526;1256;114767;-65
2023/06/08 08:22:06;;;;;;;7.30;6.40;;;;;;;36.69;27.52;100316.52;130528;1276;115142;-67
2023/06/08 08:25:08;;;;;;;7.60;6.40;;;;;;;36.24;26.78;100319.17;130268;1254;114758;-67
2023/06/08 08:28:10;;;;;;;7.40;6.20;;;;;;;35.52;27.24;100318.00;130305;1275;114702;-64
2023/06/08 08:31:13;;;;;;;8.30;6.30;;;;;;;34.95;27.63;100322.52;130550;1256;114714;-65
2023/06/08 08:34:15;;;;;;;10.60;7.10;;;;;;;34.69;27.81;100323.19;130370;1273;119461;-66
2023/06/08 08:37:17;;;;;;;7.50;6.00;;;;;;;34.43;28.01;100320.92;130505;1256;115144;-64
2023/06/08 08:40:19;;;;;;;6.70;6.10;;;;;;;33.89;28.58;100321.08;130581;1253;114740;-65
2023/06/08 08:43:28;;;;;;;12.70;6.60;;;;;;;33.59;28.84;100317.86;130409;1268;114699;-67
2023/06/08 08:46:34;;;;;;;8.40;6.50;;;;;;;33.44;28.87;100318.17;130667;1267;114709;-65
2023/06/08 08:49:40;;;;;;;8.30;6.00;;;;;;;33.32;29.20;100318.52;130233;1260;114864;-65
2023/06/08 08:52:45;;;;;;;9.80;6.10;;;;;;;33.17;29.09;100320.84;130011;1259;120230;-65
2023/06/08 08:55:48;;;;;;;7.30;6.00;;;;;;;33.09;29.46;100320.95;130641;1254;114703;-65
2023/06/08 08:58:51;;;;;;;6.70;5.60;;;;;;;33.19;29.36;100315.48;130267;1259;114789;-64
2023/06/08 09:01:53;;;;;;;6.90;5.70;;;;;;;33.20;29.29;100312.45;129746;1256;114760;-68
2023/06/08 09:04:56;;;;;;;7.30;6.10;;;;;;;32.72;29.30;100308.62;130366;1264;114716;-66
2023/06/08 09:07:58;;;;;;;6.40;5.40;;;;;;;32.20;29.64;100308.27;130567;1272;114716;-67
2023/06/08 09:11:03;;;;;;;5.80;4.30;;;;;;;31.81;29.55;100305.00;130474;1272;119913;-68
2023/06/08 09:14:08;;;;;;;5.50;4.10;;;;;;;31.37;29.51;100303.38;130471;1256;114709;-68
2023/06/08 09:17:09;;;;;;;;;;;;;;;30.95;29.96;100301.52;130619;1256;115267;-67
2023/06/08 09:20:11;;;;;;;6.20;4.20;;;;;;;30.64;29.95;100300.64;130475;1254;115077;-67
2023/06/08 09:23:23;;;;;;;7.50;4.20;;;;;;;30.46;30.52;100294.73;130617;1257;114688;-66
2023/06/08 09:26:31;;;;;;;4.00;3.40;;;;;;;30.57;30.50;100293.02;131124;1256;114734;-66
2023/06/08 09:29:40;;;;;;;4.70;3.70;;;;;;;30.70;29.93;100301.42;130433;1254;120215;-66
2023/06/08 09:32:42;;;;;;;4.40;3.40;;;;;;;30.60;29.61;100298.68;130482;1273;115152;-65
2023/06/08 09:35:44;;;;;;;4.50;3.90;;;;;;;30.50;29.68;100294.71;130551;1256;114760;-65
2023/06/08 09:38:55;;;;;;;3.60;3.30;;;;;;;30.34;29.16;100290.67;130450;1275;115311;-67
2023/06/08 09:42:00;;;;;;;9.00;3.90;;;;;;;30.04;29.16;100292.82;130107;1263;114699;-65
2023/06/08 09:45:13;;;;;;;9.40;4.00;;;;;;;29.72;29.42;100292.84;129971;1275;119173;-66
2023/06/08 09:48:15;;;;;;;4.30;3.90;;;;;;;29.56;29.77;100288.99;130452;1258;115164;-66
2023/06/08 09:51:18;;;;;;;4.90;3.80;;;;;;;29.54;30.08;100284.44;130414;1272;114712;-65
2023/06/08 09:54:21;;;;;;;8.00;3.70;;;;;;;29.53;30.17;100273.52;130199;1275;114721;-67
2023/06/08 09:57:23;;;;;;;9.10;4.00;;;;;;;29.51;29.72;100269.73;130551;1276;114778;-65
2023/06/08 10:00:27;;;;;;;4.60;4.20;;;;;;;29.41;29.49;100268.55;130130;1275;114760;-66
2023/06/08 10:03:51;;;;;;;8.00;4.10;;;;;;;29.24;29.81;100274.70;130349;1257;120486;-66
2023/06/08 10:06:56;;;;;;;9.10;4.10;;;;;;;29.04;30.51;100275.34;130337;1254;115012;-66
2023/06/08 10:10:04;;;;;;;5.90;4.50;;;;;;;28.94;30.43;100276.52;130086;1262;114739;-66
2023/06/08 10:13:07;;;;;;;7.90;4.10;;;;;;;28.86;30.22;100267.35;130465;1275;114807;-66
2023/06/08 10:16:10;;;;;;;5.00;3.80;;;;;;;28.78;30.25;100260.83;130270;1254;114699;-66
2023/06/08 10:19:12;;;;;;;7.60;4.20;;;;;;;28.78;30.29;100256.68;130459;1257;114737;-66
2023/06/08 10:22:15;;;;;;;9.90;4.00;;;;;;;28.79;30.52;100259.52;130168;1260;114816;-66
2023/06/08 10:25:18;;;;;;;7.70;3.90;;;;;;;28.85;30.39;100255.25;130393;1257;114743;-65
2023/06/08 10:28:20;;;;;;;4.20;3.60;;;;;;;28.84;30.18;100248.84;130360;1259;115130;-66
2023/06/08 10:31:34;;;;;;;5.50;3.90;;;;;;;28.87;30.53;100244.53;130417;1254;114709;-66
2023/06/08 10:34:39;;;;;;;4.50;3.80;;;;;;;29.08;30.65;100243.19;130441;1256;115080;-67
2023/06/08 10:37:44;;;;;;;3.90;3.30;;;;;;;29.18;30.57;100228.46;130187;1276;119047;-66
2023/06/08 10:40:49;;;;;;;10.50;4.90;;;;;;;29.12;30.47;100230.99;130412;1256;115046;-66
2023/06/08 10:43:59;;;;;;;10.00;4.10;;;;;;;29.09;30.66;100232.16;130290;1258;115318;-65
2023/06/08 10:47:07;;;;;;;6.30;4.60;;;;;;;29.18;30.75;100223.44;130068;1262;115098;-68
2023/06/08 10:50:09;;;;;;;6.30;4.40;;;;;;;29.25;30.70;100223.48;130305;1259;114794;-67
2023/06/08 10:53:12;;;;;;;4.60;4.20;;;;;;;29.19;30.65;100226.88;130240;1254;115115;-66
2023/06/08 10:56:16;;;;;;;10.10;4.40;;;;;;;29.14;30.90;100221.84;130197;1277;114754;-67
2023/06/08 10:59:34;;;;;;;;;;;;;;;29.15;31.11;100216.63;130252;1259;114834;-67
2023/06/08 11:02:37;;;;;;;6.70;3.70;;;;;;;29.18;31.05;100213.94;130325;1257;114734;-68
2023/06/08 11:05:44;;;;;;;4.20;3.80;;;;;;;29.19;30.68;100214.49;130199;1254;114705;-66
2023/06/08 11:08:46;;;;;;;6.30;4.20;;;;;;;29.20;30.55;100212.96;130304;1260;120370;-65
2023/06/08 11:11:50;;;;;;;4.80;4.00;;;;;;;29.20;30.46;100203.30;130329;1259;115002;-67
2023/06/08 11:14:54;;;;;;;6.10;4.50;;;;;;;29.19;30.51;100204.39;129988;1277;114809;-68
2023/06/08 11:17:56;;;;;;;6.20;5.40;;;;;;;29.19;30.65;100200.73;130260;1277;116283;-67
2023/06/08 11:20:59;;;;;;;9.30;6.50;;;;;;;29.19;29.83;100202.45;130296;1259;114920;-68
2023/06/08 11:24:01;;;;;;;11.00;4.40;;;;;;;29.12;29.54;100201.96;130341;1277;114738;-66
2023/06/08 11:27:04;;;;;;;30.60;18.20;;;;;;;29.05;29.95;100189.13;129954;1276;118967;-66
2023/06/08 11:30:08;;;;;;;10.30;7.10;;;;;;;29.11;29.96;100186.42;130326;1257;115231;-67
2023/06/08 11:33:17;;;;;;;5.60;3.90;;;;;;;29.18;29.59;100192.34;130299;1259;114776;-65
2023/06/08 11:36:21;;;;;;;5.50;4.30;;;;;;;29.19;29.43;100191.11;130377;1259;114677;-65
2023/06/08 11:39:23;;;;;;;4.40;4.00;;;;;;;29.10;29.45;100189.02;130465;1259;114773;-65
2023/06/08 11:42:25;;;;;;;6.00;4.30;;;;;;;29.03;29.47;100182.96;130583;1256;115375;-65
2023/06/08 11:45:28;;;;;;;8.40;4.60;;;;;;;28.95;29.58;100176.16;130442;1275;119884;-68
2023/06/08 11:48:30;;;;;;;4.50;4.10;;;;;;;28.84;29.92;100170.81;131144;1254;115230;-66
2023/06/08 11:51:32;;;;;;;6.00;5.00;;;;;;;28.79;30.21;100172.02;131895;1266;115125;-67
2023/06/08 11:54:35;;;;;;;7.60;4.30;;;;;;;28.87;30.23;100166.48;131390;1256;115385;-67
2023/06/08 11:57:46;;;;;;;6.60;5.80;;;;;;;28.92;30.31;100166.65;130708;1253;114732;-66
2023/06/08 12:00:48;;;;;;;10.50;4.70;;;;;;;28.98;30.32;100160.40;130684;1257;114683;-67
2023/06/08 12:03:50;;;;;;;4.60;4.10;;;;;;;29.01;29.99;100156.60;130435;1256;114699;-67
2023/06/08 12:06:53;;;;;;;10.20;5.60;;;;;;;29.00;29.80;100150.91;130557;1252;114759;-69
2023/06/08 12:09:55;;;;;;;6.40;4.40;;;;;;;29.07;29.66;100143.21;130323;1256;114757;-66
2023/06/08 12:12:57;;;;;;;5.40;4.20;;;;;;;29.14;29.38;100144.50;130286;1257;115388;-67
2023/06/08 12:16:04;;;;;;;5.10;4.20;;;;;;;29.21;29.48;100141.55;130312;1276;114773;-66
2023/06/08 12:19:06;;;;;;;10.40;4.50;;;;;;;29.26;29.47;100136.66;130281;1256;115341;-66
2023/06/08 12:22:08;;;;;;;5.60;4.30;;;;;;;29.31;29.56;100137.14;130411;1266;114791;-67
2023/06/08 12:25:11;;;;;;;5.90;4.80;;;;;;;29.34;29.42;100128.88;130437;1254;114688;-67
2023/06/08 12:28:20;;;;;;;6.60;4.20;;;;;;;29.27;29.26;100122.42;130273;1273;114753;-66
2023/06/08 12:31:22;;;;;;;6.90;4.40;;;;;;;29.19;29.48;100120.34;130171;1260;115399;-67
2023/06/08 12:34:24;;;;;;;8.00;4.40;;;;;;;29.06;28.99;100124.09;130272;1260;114794;-67
2023/06/08 12:37:26;;;;;;;7.70;5.10;;;;;;;28.94;29.11;100116.27;130396;1276;115148;-66
2023/06/08 12:40:28;;;;;;;13.60;10.90;;;;;;;28.94;28.91;100117.48;130503;1267;114785;-66
2023/06/08 12:43:30;;;;;;;7.40;4.70;;;;;;;28.97;28.77;100117.33;130385;1257;115151;-68
2023/06/08 12:46:32;;;;;;;8.40;4.10;;;;;;;28.96;28.77;100108.24;130469;1264;114797;-65
2023/06/08 12:49:34;;;;;;;8.80;4.20;;;;;;;28.95;28.76;100109.42;130169;1261;115148;-66
2023/06/08 12:52:37;;;;;;;5.30;4.60;;;;;;;28.95;28.59;100113.24;130360;1257;114991;-66
2023/06/08 12:55:39;;;;;;;12.10;5.00;;;;;;;28.88;27.56;100112.40;130353;1275;114779;-65
2023/06/08 12:58:41;;;;;;;6.20;3.70;;;;;;;28.91;27.88;100104.15;130427;1260;114623;-65
2023/06/08 13:01:44;;;;;;;5.40;4.00;;;;;;;29.07;28.42;100108.06;130374;1256;114705;-65
2023/06/08 13:04:46;;;;;;;4.50;4.00;;;;;;;29.25;28.57;100108.54;130335;1270;115309;-65
2023/06/08 13:07:49;;;;;;;4.70;4.20;;;;;;;29.40;28.58;100109.48;130415;1257;114785;-66
2023/06/08 13:10:51;;;;;;;5.30;4.10;;;;;;;29.51;28.65;100106.61;130344;1272;115218;-65
2023/06/08 13:13:53;;;;;;;6.40;5.10;;;;;;;29.46;28.46;100110.13;130274;1259;114693;-65
2023/06/08 13:16:56;;;;;;;9.60;4.40;;;;;;;29.32;28.18;100116.20;130264;1269;114779;-65
2023/06/08 13:19:58;;;;;;;5.70;4.40;;;;;;;29.19;28.30;100108.00;130304;1263;114733;-64
2023/06/08 13:23:01;;;;;;;6.80;4.30;;;;;;;29.14;28.38;100105.59;130270;1257;114734;-65
2023/06/08 13:26:03;;;;;;;4.70;4.00;;;;;;;29.09;28.54;100101.16;130199;1276;119316;-65
2023/06/08 13:29:06;;;;;;;9.20;5.00;;;;;;;29.10;28.35;100101.03;130485;1256;115237;-66
2023/06/08 13:32:09;;;;;;;6.70;4.30;;;;;;;29.08;28.17;100094.73;130496;1266;114797;-65
2023/06/08 13:35:11;;;;;;;5.70;4.10;;;;;;;29.07;28.20;100095.28;129959;1267;114857;-65
2023/06/08 13:38:14;;;;;;;4.50;4.10;;;;;;;29.06;28.34;100090.95;130444;1267;114704;-66
2023/06/08 13:41:17;;;;;;;7.60;4.30;;;;;;;29.06;28.16;100084.53;130393;1275;114821;-67
2023/06/08 13:44:19;;;;;;;5.10;4.10;;;;;;;29.06;28.12;100083.19;130414;1270;114715;-66
2023/06/08 13:47:22;;;;;;;7.10;4.10;;;;;;;29.04;27.38;100088.44;130632;1275;115276;-66